Terminal Aerodrome Forecast
Issued by NWS

Home | Current Version | Previous Version | Text Only | Print | Product List | Glossary On
Versions: 1 2 3 4 5 6 7 8 9 10 11 12 13 14
681
FTUS41 KCAR 171734
TAFBHB
TAF
KBHB 171734Z 1718/1818 36006KT 3/4SM -SN BR OVC010
     FM180300 VRB02KT P6SM BKN030
     FM180600 VRB02KT P6SM BKN040
     FM180900 VRB02KT P6SM SCT050=

USA.gov is the U.S. government's official web portal to all federal, state and local government web resources and services.